createdAt,value
2023-03-05T00:00:13.375Z,100189.50
2023-03-05T00:03:16.317Z,100181.81
2023-03-05T00:06:24.066Z,100184.69
2023-03-05T00:09:26.799Z,100178.78
2023-03-05T00:12:30.282Z,100175.28
2023-03-05T00:15:32.986Z,100183.03
2023-03-05T00:18:35.979Z,100173.88
2023-03-05T00:21:42.221Z,100163.63
2023-03-05T00:24:44.953Z,100168.59
2023-03-05T00:27:47.659Z,100161.78
2023-03-05T00:30:50.704Z,100163.97
2023-03-05T00:33:55.290Z,100156.41
2023-03-05T00:36:58.602Z,100155.34
2023-03-05T00:40:01.399Z,100151.78
2023-03-05T00:43:04.922Z,100157.94
2023-03-05T00:46:07.778Z,100146.03
2023-03-05T00:49:10.663Z,100144.63
2023-03-05T00:52:13.527Z,100140.34
2023-03-05T00:55:16.329Z,100143.59
2023-03-05T00:58:19.092Z,100145.91
2023-03-05T01:01:21.863Z,100136.41
2023-03-05T01:04:24.736Z,100128.75
2023-03-05T01:07:27.529Z,100142.50
2023-03-05T01:10:30.434Z,100142.03
2023-03-05T01:13:33.536Z,100139.97
2023-03-05T01:16:36.284Z,100147.66
2023-03-05T01:19:46.643Z,100142.69
2023-03-05T01:22:50.089Z,100144.44
2023-03-05T01:25:56.832Z,100138.06
2023-03-05T01:28:59.930Z,100144.91
2023-03-05T01:32:02.757Z,100141.91
2023-03-05T01:35:06.537Z,100150.16
2023-03-05T01:38:09.298Z,100139.94
2023-03-05T01:41:14.024Z,100135.34
2023-03-05T01:44:22.394Z,100146.66
2023-03-05T01:47:25.150Z,100136.25
2023-03-05T01:50:28.396Z,100135.81
2023-03-05T01:53:31.855Z,100126.94
2023-03-05T01:56:35.256Z,100127.53
2023-03-05T01:59:40.573Z,100124.28
2023-03-05T02:02:49.928Z,100121.59
2023-03-05T02:05:52.783Z,100120.44
2023-03-05T02:08:55.631Z,100123.53
2023-03-05T02:11:59.059Z,100127.19
2023-03-05T02:15:01.885Z,100128.34
2023-03-05T02:18:06.917Z,100130.22
2023-03-05T02:21:10.703Z,100131.63
2023-03-05T02:24:15.212Z,100138.47
2023-03-05T02:27:19.668Z,100124.16
2023-03-05T02:30:22.594Z,100127.88
2023-03-05T02:33:25.408Z,100122.19
2023-03-05T02:36:28.343Z,100128.72
2023-03-05T02:39:32.165Z,100130.44
2023-03-05T02:42:35.533Z,100126.34
2023-03-05T02:45:39.053Z,100128.56
2023-03-05T02:48:42.507Z,100130.50
2023-03-05T02:51:47.854Z,100132.28
2023-03-05T02:54:50.646Z,100128.41
2023-03-05T02:57:53.778Z,100131.09
2023-03-05T03:00:58.354Z,100120.91
2023-03-05T03:04:01.314Z,100123.25
2023-03-05T03:07:04.213Z,100127.44
2023-03-05T03:10:07.590Z,100126.72
2023-03-05T03:13:10.317Z,100123.63
2023-03-05T03:16:15.168Z,100129.91
2023-03-05T03:19:17.918Z,100123.41
2023-03-05T03:22:20.736Z,100127.69
2023-03-05T03:25:23.584Z,100112.94
2023-03-05T03:28:28.404Z,100108.28
2023-03-05T03:31:31.109Z,100126.47
2023-03-05T03:34:34.003Z,100119.13
2023-03-05T03:37:36.760Z,100111.91
2023-03-05T03:40:41.252Z,100119.00
2023-03-05T03:43:43.999Z,100112.25
2023-03-05T03:46:48.243Z,100113.09
2023-03-05T03:49:55.234Z,100117.94
2023-03-05T03:52:58.048Z,100114.78
2023-03-05T03:56:00.938Z,100112.81
2023-03-05T03:59:03.840Z,100117.88
2023-03-05T04:02:06.666Z,100109.88
2023-03-05T04:05:09.708Z,100116.88
2023-03-05T04:08:13.193Z,100120.94
2023-03-05T04:11:16.262Z,100119.31
2023-03-05T04:14:19.226Z,100129.72
2023-03-05T04:17:22.171Z,100121.47
2023-03-05T04:20:24.894Z,100128.81
2023-03-05T04:23:27.561Z,100113.72
2023-03-05T04:26:30.331Z,100119.97
2023-03-05T04:29:33.908Z,100123.47
2023-03-05T04:32:36.905Z,100119.78
2023-03-05T04:35:39.918Z,100119.88
2023-03-05T04:38:42.735Z,100113.84
2023-03-05T04:41:45.639Z,100114.09
2023-03-05T04:44:49.750Z,100117.59
2023-03-05T04:47:52.655Z,100110.94
2023-03-05T04:50:57.869Z,100114.19
2023-03-05T04:54:00.724Z,100118.25
2023-03-05T04:57:03.698Z,100121.84
2023-03-05T05:00:14.491Z,100131.56
2023-03-05T05:03:17.350Z,100131.41
2023-03-05T05:06:20.086Z,100136.75
2023-03-05T05:09:23.376Z,100126.63
2023-03-05T05:12:30.763Z,100127.56
2023-03-05T05:15:33.592Z,100125.00
2023-03-05T05:18:36.547Z,100122.22
2023-03-05T05:21:39.877Z,100122.44
2023-03-05T05:24:42.862Z,100133.63
2023-03-05T05:27:45.628Z,100132.84
2023-03-05T05:30:48.341Z,100134.66
2023-03-05T05:33:51.116Z,100142.00
2023-03-05T05:36:53.865Z,100139.06
2023-03-05T05:39:56.668Z,100146.03
2023-03-05T05:42:59.470Z,100136.56
2023-03-05T05:46:08.364Z,100133.94
2023-03-05T05:49:11.313Z,100131.13
2023-03-05T05:52:14.358Z,100135.22
2023-03-05T05:55:17.217Z,100143.94
2023-03-05T05:58:20.119Z,100148.50
2023-03-05T06:01:32.047Z,100144.13
2023-03-05T06:04:36.214Z,100161.25
2023-03-05T06:07:39.177Z,100164.16
2023-03-05T06:10:41.988Z,100161.97
2023-03-05T06:13:45.370Z,100162.69
2023-03-05T06:16:48.143Z,100171.31
2023-03-05T06:19:50.889Z,100153.56
2023-03-05T06:22:53.585Z,100167.41
2023-03-05T06:26:00.000Z,100168.19
2023-03-05T06:29:03.417Z,100156.28
2023-03-05T06:32:06.654Z,100155.53
2023-03-05T06:35:09.555Z,100156.69
2023-03-05T06:38:12.396Z,100150.00
2023-03-05T06:41:17.878Z,100153.09
2023-03-05T06:44:20.649Z,100160.03
2023-03-05T06:47:23.368Z,100163.66
2023-03-05T06:50:26.284Z,100160.19
2023-03-05T06:53:29.362Z,100160.53
2023-03-05T06:56:32.614Z,100155.38
2023-03-05T06:59:35.315Z,100164.16
2023-03-05T07:02:38.772Z,100170.84
2023-03-05T07:05:43.579Z,100166.44
2023-03-05T07:08:46.888Z,100166.31
2023-03-05T07:11:49.609Z,100179.47
2023-03-05T07:14:52.521Z,100173.97
2023-03-05T07:17:56.689Z,100166.81
2023-03-05T07:21:07.216Z,100165.88
2023-03-05T07:24:12.231Z,100157.59
2023-03-05T07:27:14.953Z,100158.84
2023-03-05T07:30:18.097Z,100155.22
2023-03-05T07:33:20.888Z,100156.25
2023-03-05T07:36:24.296Z,100154.47
2023-03-05T07:39:27.075Z,100160.31
2023-03-05T07:42:30.155Z,100172.75
2023-03-05T07:45:46.550Z,100163.16
2023-03-05T07:48:49.801Z,100157.75
2023-03-05T07:51:52.574Z,100158.97
2023-03-05T07:54:55.283Z,100168.72
2023-03-05T07:57:58.053Z,100163.72
2023-03-05T08:01:00.860Z,100165.34
2023-03-05T08:04:05.093Z,100169.41
2023-03-05T08:07:08.078Z,100173.19
2023-03-05T08:10:11.392Z,100173.19
2023-03-05T08:13:14.139Z,100178.59
2023-03-05T08:16:22.026Z,100180.25
2023-03-05T08:19:24.774Z,100177.50
2023-03-05T08:22:27.651Z,100172.09
2023-03-05T08:25:31.568Z,100174.88
2023-03-05T08:28:34.517Z,100172.66
2023-03-05T08:31:38.122Z,100166.63
2023-03-05T08:34:40.936Z,100162.78
2023-03-05T08:37:43.831Z,100171.44
2023-03-05T08:40:46.620Z,100165.31
2023-03-05T08:43:49.421Z,100161.94
2023-03-05T08:46:52.148Z,100161.56
2023-03-05T08:49:57.346Z,100155.44
2023-03-05T08:53:00.321Z,100158.28
2023-03-05T08:56:03.825Z,100156.22
2023-03-05T08:59:07.040Z,100149.16
2023-03-05T09:02:12.936Z,100164.09
2023-03-05T09:05:16.234Z,100160.25
2023-03-05T09:08:19.487Z,100154.34
2023-03-05T09:11:22.464Z,100162.25
2023-03-05T09:14:28.244Z,100161.28
2023-03-05T09:17:31.035Z,100159.88
2023-03-05T09:20:34.062Z,100155.84
2023-03-05T09:23:36.837Z,100154.91
2023-03-05T09:26:41.464Z,100149.88
2023-03-05T09:29:44.172Z,100150.72
2023-03-05T09:32:47.081Z,100150.63
2023-03-05T09:35:50.057Z,100146.34
2023-03-05T09:38:55.177Z,100145.25
2023-03-05T09:42:25.748Z,100140.50
2023-03-05T09:45:33.154Z,100140.41
2023-03-05T09:48:50.241Z,100137.75
2023-03-05T09:52:02.165Z,100137.72
2023-03-05T09:55:14.009Z,100134.50
2023-03-05T09:58:31.576Z,100131.72
2023-03-05T10:01:42.283Z,100133.88
2023-03-05T10:05:04.181Z,100125.78
2023-03-05T10:08:06.992Z,100131.00
2023-03-05T10:11:23.719Z,100125.59
2023-03-05T10:14:30.800Z,100108.25
2023-03-05T10:18:08.682Z,100106.34
2023-03-05T10:21:17.302Z,100102.66
2023-03-05T10:24:38.693Z,100097.16
2023-03-05T10:27:55.181Z,100094.66
2023-03-05T10:31:24.981Z,100091.34
2023-03-05T10:34:33.924Z,100087.38
2023-03-05T10:37:47.237Z,100077.13
2023-03-05T10:40:57.107Z,100082.75
2023-03-05T10:44:21.794Z,100069.03
2023-03-05T10:47:27.961Z,100058.44
2023-03-05T10:50:49.548Z,100058.22
2023-03-05T10:53:56.291Z,100055.84
2023-03-05T10:57:20.093Z,100049.38
2023-03-05T11:00:28.236Z,100040.63
2023-03-05T11:04:08.117Z,100029.50
2023-03-05T11:07:16.653Z,100038.38
2023-03-05T11:10:21.602Z,100021.41
2023-03-05T11:13:27.742Z,100018.16
2023-03-05T11:16:33.529Z,100012.84
2023-03-05T11:19:37.779Z,100013.56
2023-03-05T11:22:40.839Z,100011.97
2023-03-05T11:25:54.523Z,100006.31
2023-03-05T11:29:03.303Z,100000.16
2023-03-05T11:32:20.260Z,100003.19
2023-03-05T11:35:38.096Z,99988.56
2023-03-05T11:38:52.835Z,99991.22
2023-03-05T11:42:01.446Z,99987.84
2023-03-05T11:45:05.051Z,99981.38
2023-03-05T11:48:20.253Z,99986.72
2023-03-05T11:51:31.719Z,99963.13
2023-03-05T11:54:42.968Z,99963.78
2023-03-05T11:58:04.928Z,99958.25
2023-03-05T12:01:16.161Z,99944.22
2023-03-05T12:04:20.817Z,99951.25
2023-03-05T12:07:46.496Z,99951.88
2023-03-05T12:10:49.317Z,99944.94
2023-03-05T12:13:58.143Z,99939.91
2023-03-05T12:17:12.705Z,99933.31
2023-03-05T12:20:54.060Z,99938.06
2023-03-05T12:24:01.500Z,99925.00
2023-03-05T12:27:04.655Z,99924.03
2023-03-05T12:30:36.696Z,99921.56
2023-03-05T12:33:43.745Z,99927.44
2023-03-05T12:36:46.515Z,99925.63
2023-03-05T12:39:59.186Z,99921.88
2023-03-05T12:43:30.141Z,99917.94
2023-03-05T12:46:42.232Z,99909.91
2023-03-05T12:49:46.356Z,99909.56
2023-03-05T12:52:49.387Z,99903.66
2023-03-05T12:56:01.309Z,99907.81
2023-03-05T12:59:04.538Z,99905.63
2023-03-05T13:02:39.434Z,99893.81
2023-03-05T13:05:51.237Z,99895.78
2023-03-05T13:09:24.757Z,99889.59
2023-03-05T13:12:30.141Z,99890.41
2023-03-05T13:15:33.041Z,99885.66
2023-03-05T13:18:39.543Z,99881.84
2023-03-05T13:21:42.528Z,99879.81
2023-03-05T13:24:47.219Z,99880.63
2023-03-05T13:27:50.321Z,99880.59
2023-03-05T13:31:02.746Z,99868.97
2023-03-05T13:34:15.400Z,99873.53
2023-03-05T13:37:25.107Z,99870.00
2023-03-05T13:40:33.087Z,99868.63
2023-03-05T13:43:43.192Z,99870.44
2023-03-05T13:46:46.130Z,99866.25
2023-03-05T13:49:56.807Z,99870.50
2023-03-05T13:53:18.208Z,99869.53
2023-03-05T13:56:21.643Z,99865.72
2023-03-05T13:59:35.768Z,99853.50
2023-03-05T14:02:43.249Z,99851.63
2023-03-05T14:05:52.839Z,99851.91
2023-03-05T14:09:05.344Z,99844.94
2023-03-05T14:12:34.008Z,99843.44
2023-03-05T14:15:36.741Z,99847.34
2023-03-05T14:18:50.979Z,99842.75
2023-03-05T14:21:53.918Z,99835.75
2023-03-05T14:24:56.915Z,99836.22
2023-03-05T14:28:03.046Z,99833.66
2023-03-05T14:31:16.270Z,99837.00
2023-03-05T14:34:41.139Z,99831.41
2023-03-05T14:37:49.196Z,99831.66
2023-03-05T14:40:52.193Z,99829.56
2023-03-05T14:43:56.413Z,99826.66
2023-03-05T14:46:59.316Z,99825.34
2023-03-05T14:50:02.112Z,99819.78
2023-03-05T14:53:13.862Z,99827.09
2023-03-05T14:56:23.211Z,99821.66
2023-03-05T14:59:26.256Z,99823.38
2023-03-05T15:02:29.511Z,99820.78
2023-03-05T15:05:33.437Z,99821.22
2023-03-05T15:08:36.495Z,99822.19
2023-03-05T15:11:39.609Z,99820.44
2023-03-05T15:14:43.622Z,99812.75
2023-03-05T15:17:48.277Z,99821.78
2023-03-05T15:20:53.230Z,99819.03
2023-03-05T15:23:56.030Z,99824.88
2023-03-05T15:26:58.807Z,99820.34
2023-03-05T15:30:01.903Z,99813.59
2023-03-05T15:33:08.681Z,99815.34
2023-03-05T15:36:11.807Z,99816.63
2023-03-05T15:39:15.980Z,99816.31
2023-03-05T15:42:19.452Z,99818.53
2023-03-05T15:45:22.900Z,99812.75
2023-03-05T15:48:25.992Z,99824.50
2023-03-05T15:51:29.053Z,99819.84
2023-03-05T15:54:32.168Z,99819.34
2023-03-05T15:57:43.819Z,99824.00
2023-03-05T16:00:47.698Z,99831.91
2023-03-05T16:03:51.622Z,99828.84
2023-03-05T16:06:54.935Z,99824.47
2023-03-05T16:09:58.688Z,99828.53
2023-03-05T16:13:04.693Z,99831.13
2023-03-05T16:16:09.227Z,99819.94
2023-03-05T16:19:15.805Z,99825.75
2023-03-05T16:22:20.223Z,99828.31
2023-03-05T16:25:24.118Z,99826.75
2023-03-05T16:28:27.208Z,99821.22
2023-03-05T16:31:35.625Z,99825.25
2023-03-05T16:34:38.673Z,99821.34
2023-03-05T16:37:42.027Z,99818.09
2023-03-05T16:41:06.827Z,99816.00
2023-03-05T16:44:08.213Z,99819.41
2023-03-05T16:47:12.422Z,99819.91
2023-03-05T16:50:15.478Z,99820.03
2023-03-05T16:53:18.782Z,99825.69
2023-03-05T16:56:21.921Z,99833.47
2023-03-05T16:59:25.397Z,99827.81
2023-03-05T17:02:29.209Z,99830.38
2023-03-05T17:05:35.212Z,99838.88
2023-03-05T17:08:40.019Z,99835.66
2023-03-05T17:11:43.167Z,99830.38
2023-03-05T17:14:46.395Z,99829.50
2023-03-05T17:17:49.589Z,99831.09
2023-03-05T17:20:53.800Z,99832.38
2023-03-05T17:23:56.984Z,99829.84
2023-03-05T17:27:01.125Z,99834.50
2023-03-05T17:30:05.568Z,99834.00
2023-03-05T17:33:09.813Z,99829.94
2023-03-05T17:36:21.638Z,99837.31
2023-03-05T17:39:24.714Z,99836.56
2023-03-05T17:42:28.171Z,99835.22
2023-03-05T17:45:32.629Z,99831.22
2023-03-05T17:48:39.116Z,99846.56
2023-03-05T17:51:42.143Z,99837.16
2023-03-05T17:54:46.217Z,99845.53
2023-03-05T17:57:49.215Z,99835.53
2023-03-05T18:00:52.566Z,99831.44
2023-03-05T18:03:56.615Z,99830.66
2023-03-05T18:06:59.710Z,99830.31
2023-03-05T18:10:03.528Z,99826.91
2023-03-05T18:13:06.703Z,99824.66
2023-03-05T18:16:14.418Z,99833.81
2023-03-05T18:19:19.417Z,99830.84
2023-03-05T18:22:22.316Z,99825.81
2023-03-05T18:25:31.137Z,99833.81
2023-03-05T18:28:34.469Z,99811.69
2023-03-05T18:31:37.954Z,99816.59
2023-03-05T18:34:41.098Z,99818.34
2023-03-05T18:37:44.192Z,99829.75
2023-03-05T18:40:47.937Z,99827.47
2023-03-05T18:43:53.851Z,99832.97
2023-03-05T18:46:56.651Z,99835.34
2023-03-05T18:49:59.856Z,99818.72
2023-03-05T18:53:03.055Z,99824.34
2023-03-05T18:56:06.791Z,99822.69
2023-03-05T18:59:09.883Z,99827.31
2023-03-05T19:02:16.704Z,99831.06
2023-03-05T19:05:20.846Z,99837.19
2023-03-05T19:08:24.027Z,99839.09
2023-03-05T19:11:27.310Z,99830.44
2023-03-05T19:14:30.756Z,99827.47
2023-03-05T19:17:33.743Z,99826.28
2023-03-05T19:20:36.966Z,99833.66
2023-03-05T19:23:40.018Z,99831.00
2023-03-05T19:26:44.146Z,99822.09
2023-03-05T19:29:47.313Z,99825.94
2023-03-05T19:32:50.463Z,99827.75
2023-03-05T19:35:54.228Z,99809.53
2023-03-05T19:38:59.737Z,99831.00
2023-03-05T19:42:03.967Z,99831.31
2023-03-05T19:45:07.968Z,99827.34
2023-03-05T19:48:11.022Z,99828.75
2023-03-05T19:51:20.340Z,99834.72
2023-03-05T19:54:23.666Z,99834.75
2023-03-05T19:57:26.792Z,99836.47
2023-03-05T20:00:29.844Z,99828.16
2023-03-05T20:03:32.970Z,99828.81
2023-03-05T20:06:35.964Z,99834.94
2023-03-05T20:09:39.095Z,99838.16
2023-03-05T20:12:44.107Z,99837.19
2023-03-05T20:15:47.134Z,99838.88
2023-03-05T20:18:54.908Z,99842.53
2023-03-05T20:21:58.060Z,99834.97
2023-03-05T20:25:01.007Z,99828.81
2023-03-05T20:28:04.589Z,99825.88
2023-03-05T20:31:07.420Z,99831.31
2023-03-05T20:34:12.811Z,99838.06
2023-03-05T20:37:15.566Z,99834.31
2023-03-05T20:41:00.284Z,99831.38
2023-03-05T20:44:04.302Z,99822.50
2023-03-05T20:47:44.813Z,99821.63
2023-03-05T20:50:48.021Z,99826.16
2023-03-05T20:53:54.361Z,99826.91
2023-03-05T20:56:57.481Z,99829.03
2023-03-05T21:00:00.953Z,99833.31
2023-03-05T21:03:04.796Z,99830.94
2023-03-05T21:06:08.542Z,99832.63
2023-03-05T21:09:11.351Z,99830.28
2023-03-05T21:12:15.434Z,99831.38
2023-03-05T21:15:22.536Z,99831.09
2023-03-05T21:18:28.297Z,99831.78
2023-03-05T21:21:31.744Z,99830.16
2023-03-05T21:25:27.731Z,99821.16
2023-03-05T21:28:31.923Z,99819.13
2023-03-05T21:31:34.964Z,99811.09
2023-03-05T21:34:37.975Z,99821.34
2023-03-05T21:37:42.698Z,99814.41
2023-03-05T21:40:48.542Z,99810.69
2023-03-05T21:43:51.386Z,99802.03
2023-03-05T21:46:54.137Z,99796.75
2023-03-05T21:49:57.320Z,99792.84
2023-03-05T21:53:00.995Z,99793.41
2023-03-05T21:56:39.183Z,99792.16
2023-03-05T21:59:42.314Z,99786.75
2023-03-05T22:02:45.977Z,99787.53
2023-03-05T22:05:48.696Z,99785.69
2023-03-05T22:08:51.500Z,99777.13
2023-03-05T22:11:54.236Z,99780.50
2023-03-05T22:14:56.999Z,99780.59
2023-03-05T22:18:00.461Z,99780.47
2023-03-05T22:21:04.102Z,99780.69
2023-03-05T22:24:06.951Z,99775.09
2023-03-05T22:27:09.766Z,99783.50
2023-03-05T22:30:14.561Z,99781.53
2023-03-05T22:33:17.333Z,99779.78
2023-03-05T22:36:20.988Z,99774.38
2023-03-05T22:39:23.993Z,99768.06
2023-03-05T22:42:26.861Z,99774.69
2023-03-05T22:45:29.658Z,99780.34
2023-03-05T22:48:32.404Z,99771.16
2023-03-05T22:51:35.668Z,99770.19
2023-03-05T22:54:38.512Z,99768.06
2023-03-05T22:57:42.189Z,99762.50
2023-03-05T23:00:45.153Z,99745.22
2023-03-05T23:04:42.640Z,99758.78
2023-03-05T23:07:45.878Z,99752.03
2023-03-05T23:10:49.000Z,99766.41
2023-03-05T23:13:51.735Z,99747.50
2023-03-05T23:16:54.411Z,99743.84
2023-03-05T23:19:57.134Z,99745.22
2023-03-05T23:23:00.725Z,99742.47
2023-03-05T23:26:03.732Z,99742.19
2023-03-05T23:29:06.633Z,99740.28
2023-03-05T23:32:09.994Z,99747.91
2023-03-05T23:35:15.776Z,99747.41
2023-03-05T23:38:19.013Z,99737.69
2023-03-05T23:41:21.751Z,99737.88
2023-03-05T23:44:24.524Z,99738.34
2023-03-05T23:47:27.802Z,99743.06
2023-03-05T23:50:36.394Z,99737.50
2023-03-05T23:53:39.180Z,99738.16
2023-03-05T23:56:42.280Z,99729.84
2023-03-05T23:59:45.327Z,99733.38
